sensor_id;sensor_type;location;lat;lon;timestamp;P1;durP1;ratioP1;P2;durP2;ratioP2
74415;SDS011;62850;42.428;25.618;2022-11-20T00:01:13;14.93;;;4.60;;
74415;SDS011;62850;42.428;25.618;2022-11-20T00:03:39;11.27;;;4.40;;
74415;SDS011;62850;42.428;25.618;2022-11-20T00:06:08;12.05;;;4.60;;
74415;SDS011;62850;42.428;25.618;2022-11-20T00:08:35;10.13;;;4.40;;
74415;SDS011;62850;42.428;25.618;2022-11-20T00:11:05;12.05;;;4.72;;
74415;SDS011;62850;42.428;25.618;2022-11-20T00:13:34;15.63;;;5.40;;
74415;SDS011;62850;42.428;25.618;2022-11-20T00:16:00;13.27;;;5.18;;
74415;SDS011;62850;42.428;25.618;2022-11-20T00:18:28;14.82;;;5.32;;
74415;SDS011;62850;42.428;25.618;2022-11-20T00:20:54;11.60;;;4.50;;
74415;SDS011;62850;42.428;25.618;2022-11-20T00:23:25;14.45;;;5.32;;
74415;SDS011;62850;42.428;25.618;2022-11-20T00:25:51;15.48;;;5.68;;
74415;SDS011;62850;42.428;25.618;2022-11-20T00:28:16;11.52;;;4.70;;
74415;SDS011;62850;42.428;25.618;2022-11-20T00:30:42;11.75;;;4.05;;
74415;SDS011;62850;42.428;25.618;2022-11-20T00:33:07;14.77;;;4.85;;
74415;SDS011;62850;42.428;25.618;2022-11-20T00:35:33;18.65;;;6.05;;
74415;SDS011;62850;42.428;25.618;2022-11-20T00:37:58;14.23;;;4.90;;
74415;SDS011;62850;42.428;25.618;2022-11-20T00:40:24;14.20;;;4.57;;
74415;SDS011;62850;42.428;25.618;2022-11-20T00:42:49;19.10;;;5.05;;
74415;SDS011;62850;42.428;25.618;2022-11-20T00:45:15;15.15;;;4.50;;
74415;SDS011;62850;42.428;25.618;2022-11-20T00:47:40;12.75;;;4.53;;
74415;SDS011;62850;42.428;25.618;2022-11-20T00:50:06;9.40;;;4.18;;
74415;SDS011;62850;42.428;25.618;2022-11-20T00:52:31;19.65;;;5.05;;
74415;SDS011;62850;42.428;25.618;2022-11-20T00:54:57;13.05;;;4.55;;
74415;SDS011;62850;42.428;25.618;2022-11-20T00:57:22;13.55;;;4.43;;
74415;SDS011;62850;42.428;25.618;2022-11-20T00:59:48;15.40;;;5.22;;
74415;SDS011;62850;42.428;25.618;2022-11-20T01:02:13;14.20;;;5.55;;
74415;SDS011;62850;42.428;25.618;2022-11-20T01:04:41;17.20;;;4.93;;
74415;SDS011;62850;42.428;25.618;2022-11-20T01:07:07;13.32;;;4.40;;
74415;SDS011;62850;42.428;25.618;2022-11-20T01:09:32;15.63;;;5.18;;
74415;SDS011;62850;42.428;25.618;2022-11-20T01:11:58;11.80;;;4.13;;
74415;SDS011;62850;42.428;25.618;2022-11-20T01:14:24;15.02;;;4.18;;
74415;SDS011;62850;42.428;25.618;2022-11-20T01:16:50;14.65;;;4.53;;
74415;SDS011;62850;42.428;25.618;2022-11-20T01:19:17;16.52;;;4.82;;
74415;SDS011;62850;42.428;25.618;2022-11-20T01:21:45;10.77;;;3.67;;
74415;SDS011;62850;42.428;25.618;2022-11-20T01:24:14;8.85;;;3.80;;
74415;SDS011;62850;42.428;25.618;2022-11-20T01:26:42;11.82;;;3.75;;
74415;SDS011;62850;42.428;25.618;2022-11-20T01:32:00;14.75;;;3.75;;
74415;SDS011;62850;42.428;25.618;2022-11-20T01:34:26;10.93;;;3.45;;
74415;SDS011;62850;42.428;25.618;2022-11-20T01:36:51;11.30;;;3.72;;
74415;SDS011;62850;42.428;25.618;2022-11-20T01:39:19;13.85;;;3.65;;
74415;SDS011;62850;42.428;25.618;2022-11-20T01:41:46;12.70;;;4.10;;
74415;SDS011;62850;42.428;25.618;2022-11-20T01:44:52;10.52;;;3.90;;
74415;SDS011;62850;42.428;25.618;2022-11-20T01:47:41;8.60;;;3.50;;
74415;SDS011;62850;42.428;25.618;2022-11-20T01:52:45;13.02;;;3.38;;
74415;SDS011;62850;42.428;25.618;2022-11-20T01:55:15;11.05;;;3.65;;
74415;SDS011;62850;42.428;25.618;2022-11-20T01:57:45;11.70;;;3.53;;
74415;SDS011;62850;42.428;25.618;2022-11-20T02:00:13;13.45;;;4.00;;
74415;SDS011;62850;42.428;25.618;2022-11-20T02:03:01;7.85;;;3.85;;
74415;SDS011;62850;42.428;25.618;2022-11-20T02:08:09;12.15;;;3.67;;
74415;SDS011;62850;42.428;25.618;2022-11-20T02:10:35;16.08;;;3.85;;
74415;SDS011;62850;42.428;25.618;2022-11-20T02:13:00;14.38;;;4.10;;
74415;SDS011;62850;42.428;25.618;2022-11-20T02:15:44;12.55;;;3.85;;
74415;SDS011;62850;42.428;25.618;2022-11-20T02:18:11;9.30;;;3.03;;
74415;SDS011;62850;42.428;25.618;2022-11-20T02:20:40;10.35;;;2.90;;
74415;SDS011;62850;42.428;25.618;2022-11-20T02:23:11;13.80;;;3.65;;
74415;SDS011;62850;42.428;25.618;2022-11-20T02:25:40;10.98;;;3.42;;
74415;SDS011;62850;42.428;25.618;2022-11-20T02:28:06;13.55;;;3.80;;
74415;SDS011;62850;42.428;25.618;2022-11-20T02:30:32;12.32;;;3.78;;
74415;SDS011;62850;42.428;25.618;2022-11-20T02:32:58;9.73;;;3.20;;
74415;SDS011;62850;42.428;25.618;2022-11-20T02:37:50;10.75;;;3.53;;
74415;SDS011;62850;42.428;25.618;2022-11-20T02:40:18;10.85;;;3.70;;
74415;SDS011;62850;42.428;25.618;2022-11-20T02:42:43;16.70;;;4.22;;
74415;SDS011;62850;42.428;25.618;2022-11-20T02:45:09;10.85;;;4.10;;
74415;SDS011;62850;42.428;25.618;2022-11-20T02:47:35;12.95;;;4.32;;
74415;SDS011;62850;42.428;25.618;2022-11-20T02:50:01;12.02;;;4.75;;
74415;SDS011;62850;42.428;25.618;2022-11-20T02:52:27;14.30;;;4.95;;
74415;SDS011;62850;42.428;25.618;2022-11-20T02:54:52;14.88;;;4.35;;
74415;SDS011;62850;42.428;25.618;2022-11-20T02:57:18;12.60;;;4.88;;
74415;SDS011;62850;42.428;25.618;2022-11-20T02:59:43;12.63;;;4.05;;
74415;SDS011;62850;42.428;25.618;2022-11-20T03:02:09;11.57;;;4.47;;
74415;SDS011;62850;42.428;25.618;2022-11-20T03:04:34;14.02;;;4.38;;
74415;SDS011;62850;42.428;25.618;2022-11-20T03:07:00;11.48;;;4.13;;
74415;SDS011;62850;42.428;25.618;2022-11-20T03:09:26;10.65;;;4.00;;
74415;SDS011;62850;42.428;25.618;2022-11-20T03:11:51;9.50;;;4.13;;
74415;SDS011;62850;42.428;25.618;2022-11-20T03:14:17;13.07;;;4.38;;
74415;SDS011;62850;42.428;25.618;2022-11-20T03:16:42;9.73;;;4.05;;
74415;SDS011;62850;42.428;25.618;2022-11-20T03:19:08;16.38;;;4.10;;
74415;SDS011;62850;42.428;25.618;2022-11-20T03:21:34;11.90;;;3.85;;
74415;SDS011;62850;42.428;25.618;2022-11-20T03:24:00;13.75;;;4.32;;
74415;SDS011;62850;42.428;25.618;2022-11-20T03:26:26;12.90;;;4.30;;
74415;SDS011;62850;42.428;25.618;2022-11-20T03:28:55;14.57;;;4.28;;
74415;SDS011;62850;42.428;25.618;2022-11-20T03:31:24;11.05;;;3.78;;
74415;SDS011;62850;42.428;25.618;2022-11-20T03:33:51;10.40;;;3.85;;
74415;SDS011;62850;42.428;25.618;2022-11-20T03:36:17;9.63;;;3.85;;
74415;SDS011;62850;42.428;25.618;2022-11-20T03:38:44;10.35;;;3.53;;
74415;SDS011;62850;42.428;25.618;2022-11-20T03:41:11;13.02;;;4.15;;
74415;SDS011;62850;42.428;25.618;2022-11-20T03:43:56;11.63;;;3.00;;
74415;SDS011;62850;42.428;25.618;2022-11-20T03:46:24;12.05;;;3.80;;
74415;SDS011;62850;42.428;25.618;2022-11-20T03:48:56;14.98;;;3.95;;
74415;SDS011;62850;42.428;25.618;2022-11-20T03:51:28;10.07;;;3.50;;
74415;SDS011;62850;42.428;25.618;2022-11-20T03:53:59;11.30;;;3.50;;
74415;SDS011;62850;42.428;25.618;2022-11-20T03:56:27;10.25;;;3.58;;
74415;SDS011;62850;42.428;25.618;2022-11-20T03:58:55;11.60;;;3.35;;
74415;SDS011;62850;42.428;25.618;2022-11-20T04:01:22;13.45;;;3.60;;
74415;SDS011;62850;42.428;25.618;2022-11-20T04:03:51;10.95;;;3.88;;
74415;SDS011;62850;42.428;25.618;2022-11-20T04:06:19;12.68;;;3.90;;
74415;SDS011;62850;42.428;25.618;2022-11-20T04:08:46;13.70;;;3.70;;
74415;SDS011;62850;42.428;25.618;2022-11-20T04:13:39;12.88;;;4.47;;
74415;SDS011;62850;42.428;25.618;2022-11-20T04:16:06;9.32;;;4.05;;
74415;SDS011;62850;42.428;25.618;2022-11-20T04:18:32;12.27;;;4.70;;
74415;SDS011;62850;42.428;25.618;2022-11-20T04:20:58;17.00;;;5.00;;
74415;SDS011;62850;42.428;25.618;2022-11-20T04:23:24;11.63;;;4.10;;
74415;SDS011;62850;42.428;25.618;2022-11-20T04:25:50;11.48;;;4.38;;
74415;SDS011;62850;42.428;25.618;2022-11-20T04:28:16;15.00;;;4.10;;
74415;SDS011;62850;42.428;25.618;2022-11-20T04:30:41;9.30;;;3.58;;
74415;SDS011;62850;42.428;25.618;2022-11-20T04:33:07;10.30;;;3.10;;
74415;SDS011;62850;42.428;25.618;2022-11-20T04:35:36;14.05;;;4.72;;
74415;SDS011;62850;42.428;25.618;2022-11-20T04:38:02;14.38;;;4.10;;
74415;SDS011;62850;42.428;25.618;2022-11-20T04:40:28;9.60;;;3.28;;
74415;SDS011;62850;42.428;25.618;2022-11-20T04:42:54;9.02;;;3.80;;
74415;SDS011;62850;42.428;25.618;2022-11-20T04:45:20;7.28;;;2.90;;
74415;SDS011;62850;42.428;25.618;2022-11-20T04:47:47;9.32;;;3.30;;
74415;SDS011;62850;42.428;25.618;2022-11-20T04:50:12;12.27;;;3.35;;
74415;SDS011;62850;42.428;25.618;2022-11-20T04:52:38;11.80;;;3.72;;
74415;SDS011;62850;42.428;25.618;2022-11-20T04:55:03;10.40;;;3.53;;
74415;SDS011;62850;42.428;25.618;2022-11-20T04:57:29;11.45;;;3.60;;
74415;SDS011;62850;42.428;25.618;2022-11-20T04:59:55;14.85;;;4.40;;
74415;SDS011;62850;42.428;25.618;2022-11-20T05:02:20;12.02;;;3.58;;
74415;SDS011;62850;42.428;25.618;2022-11-20T05:04:46;11.40;;;4.28;;
74415;SDS011;62850;42.428;25.618;2022-11-20T05:07:11;10.77;;;3.00;;
74415;SDS011;62850;42.428;25.618;2022-11-20T05:09:37;8.57;;;2.88;;
74415;SDS011;62850;42.428;25.618;2022-11-20T05:12:02;10.60;;;3.25;;
74415;SDS011;62850;42.428;25.618;2022-11-20T05:14:28;9.65;;;3.08;;
74415;SDS011;62850;42.428;25.618;2022-11-20T05:16:53;9.88;;;3.00;;
74415;SDS011;62850;42.428;25.618;2022-11-20T05:19:19;11.13;;;3.35;;
74415;SDS011;62850;42.428;25.618;2022-11-20T05:21:45;13.40;;;3.42;;
74415;SDS011;62850;42.428;25.618;2022-11-20T05:24:10;11.45;;;2.92;;
74415;SDS011;62850;42.428;25.618;2022-11-20T05:26:36;12.23;;;3.08;;
74415;SDS011;62850;42.428;25.618;2022-11-20T05:29:01;12.05;;;3.05;;
74415;SDS011;62850;42.428;25.618;2022-11-20T05:31:27;9.95;;;3.22;;
74415;SDS011;62850;42.428;25.618;2022-11-20T05:33:52;11.45;;;3.70;;
74415;SDS011;62850;42.428;25.618;2022-11-20T05:36:18;8.55;;;3.00;;
74415;SDS011;62850;42.428;25.618;2022-11-20T05:38:44;9.85;;;3.30;;
74415;SDS011;62850;42.428;25.618;2022-11-20T05:41:11;14.93;;;3.55;;
74415;SDS011;62850;42.428;25.618;2022-11-20T05:43:42;13.10;;;4.35;;
74415;SDS011;62850;42.428;25.618;2022-11-20T05:46:10;9.60;;;3.20;;
74415;SDS011;62850;42.428;25.618;2022-11-20T05:48:39;12.32;;;3.25;;
74415;SDS011;62850;42.428;25.618;2022-11-20T05:51:06;14.40;;;3.22;;
74415;SDS011;62850;42.428;25.618;2022-11-20T05:53:34;8.80;;;3.25;;
74415;SDS011;62850;42.428;25.618;2022-11-20T05:56:01;9.45;;;2.80;;
74415;SDS011;62850;42.428;25.618;2022-11-20T05:58:35;16.63;;;3.63;;
74415;SDS011;62850;42.428;25.618;2022-11-20T06:01:09;8.20;;;3.50;;
74415;SDS011;62850;42.428;25.618;2022-11-20T06:03:39;14.20;;;3.13;;
74415;SDS011;62850;42.428;25.618;2022-11-20T06:06:07;10.90;;;4.10;;
74415;SDS011;62850;42.428;25.618;2022-11-20T06:08:33;11.23;;;3.15;;
74415;SDS011;62850;42.428;25.618;2022-11-20T06:11:02;13.02;;;3.13;;
74415;SDS011;62850;42.428;25.618;2022-11-20T06:15:55;10.57;;;3.97;;
74415;SDS011;62850;42.428;25.618;2022-11-20T06:18:20;17.73;;;4.00;;
74415;SDS011;62850;42.428;25.618;2022-11-20T06:20:46;18.58;;;4.80;;
74415;SDS011;62850;42.428;25.618;2022-11-20T06:23:12;11.68;;;5.15;;
74415;SDS011;62850;42.428;25.618;2022-11-20T06:25:40;15.00;;;5.28;;
74415;SDS011;62850;42.428;25.618;2022-11-20T06:28:07;17.25;;;8.18;;
74415;SDS011;62850;42.428;25.618;2022-11-20T06:30:33;19.40;;;7.65;;
74415;SDS011;62850;42.428;25.618;2022-11-20T06:32:59;24.40;;;9.23;;
74415;SDS011;62850;42.428;25.618;2022-11-20T06:35:24;21.13;;;8.88;;
74415;SDS011;62850;42.428;25.618;2022-11-20T06:37:50;22.00;;;9.13;;
74415;SDS011;62850;42.428;25.618;2022-11-20T06:40:15;33.75;;;11.98;;
74415;SDS011;62850;42.428;25.618;2022-11-20T06:42:41;21.20;;;10.77;;
74415;SDS011;62850;42.428;25.618;2022-11-20T06:45:07;22.98;;;8.95;;
74415;SDS011;62850;42.428;25.618;2022-11-20T06:47:33;28.13;;;9.10;;
74415;SDS011;62850;42.428;25.618;2022-11-20T06:49:58;17.45;;;6.47;;
74415;SDS011;62850;42.428;25.618;2022-11-20T06:52:24;18.00;;;8.30;;
74415;SDS011;62850;42.428;25.618;2022-11-20T06:54:49;17.52;;;6.72;;
74415;SDS011;62850;42.428;25.618;2022-11-20T06:57:15;15.93;;;5.43;;
74415;SDS011;62850;42.428;25.618;2022-11-20T06:59:40;15.57;;;6.63;;
74415;SDS011;62850;42.428;25.618;2022-11-20T07:02:09;15.85;;;5.82;;
74415;SDS011;62850;42.428;25.618;2022-11-20T07:04:35;14.45;;;5.20;;
74415;SDS011;62850;42.428;25.618;2022-11-20T07:07:01;16.38;;;5.57;;
74415;SDS011;62850;42.428;25.618;2022-11-20T07:09:26;13.00;;;5.13;;
74415;SDS011;62850;42.428;25.618;2022-11-20T07:11:52;17.85;;;5.85;;
74415;SDS011;62850;42.428;25.618;2022-11-20T07:14:17;12.07;;;5.57;;
74415;SDS011;62850;42.428;25.618;2022-11-20T07:16:43;18.50;;;5.80;;
74415;SDS011;62850;42.428;25.618;2022-11-20T07:19:08;14.57;;;6.13;;
74415;SDS011;62850;42.428;25.618;2022-11-20T07:21:34;13.98;;;5.60;;
74415;SDS011;62850;42.428;25.618;2022-11-20T07:23:59;12.60;;;4.82;;
74415;SDS011;62850;42.428;25.618;2022-11-20T07:26:25;14.07;;;4.85;;
74415;SDS011;62850;42.428;25.618;2022-11-20T07:28:50;12.02;;;4.70;;
74415;SDS011;62850;42.428;25.618;2022-11-20T07:31:16;9.75;;;3.75;;
74415;SDS011;62850;42.428;25.618;2022-11-20T07:33:41;14.05;;;4.40;;
74415;SDS011;62850;42.428;25.618;2022-11-20T07:36:07;14.07;;;3.85;;
74415;SDS011;62850;42.428;25.618;2022-11-20T07:38:33;10.55;;;4.43;;
74415;SDS011;62850;42.428;25.618;2022-11-20T07:40:58;12.95;;;4.63;;
74415;SDS011;62850;42.428;25.618;2022-11-20T07:43:26;14.95;;;3.95;;
74415;SDS011;62850;42.428;25.618;2022-11-20T07:45:52;15.73;;;4.28;;
74415;SDS011;62850;42.428;25.618;2022-11-20T07:48:21;10.50;;;4.28;;
74415;SDS011;62850;42.428;25.618;2022-11-20T07:50:46;14.15;;;4.60;;
74415;SDS011;62850;42.428;25.618;2022-11-20T07:53:12;11.90;;;3.88;;
74415;SDS011;62850;42.428;25.618;2022-11-20T07:55:39;13.15;;;4.00;;
74415;SDS011;62850;42.428;25.618;2022-11-20T07:58:04;12.05;;;3.80;;
74415;SDS011;62850;42.428;25.618;2022-11-20T08:00:30;13.85;;;4.45;;
74415;SDS011;62850;42.428;25.618;2022-11-20T08:02:56;15.85;;;5.30;;
74415;SDS011;62850;42.428;25.618;2022-11-20T08:05:21;14.82;;;4.93;;
74415;SDS011;62850;42.428;25.618;2022-11-20T08:07:47;14.10;;;3.92;;
74415;SDS011;62850;42.428;25.618;2022-11-20T08:10:14;16.02;;;5.25;;
74415;SDS011;62850;42.428;25.618;2022-11-20T08:12:44;12.43;;;3.75;;
74415;SDS011;62850;42.428;25.618;2022-11-20T08:15:30;13.32;;;3.60;;
74415;SDS011;62850;42.428;25.618;2022-11-20T08:18:03;13.13;;;4.30;;
74415;SDS011;62850;42.428;25.618;2022-11-20T08:20:30;11.38;;;3.70;;
74415;SDS011;62850;42.428;25.618;2022-11-20T08:22:59;11.65;;;4.03;;
74415;SDS011;62850;42.428;25.618;2022-11-20T08:25:30;12.95;;;3.80;;
74415;SDS011;62850;42.428;25.618;2022-11-20T08:28:00;14.65;;;4.40;;
74415;SDS011;62850;42.428;25.618;2022-11-20T08:30:27;14.43;;;3.83;;
74415;SDS011;62850;42.428;25.618;2022-11-20T08:32:53;9.52;;;3.65;;
74415;SDS011;62850;42.428;25.618;2022-11-20T08:35:19;13.60;;;4.13;;
74415;SDS011;62850;42.428;25.618;2022-11-20T08:37:46;11.15;;;4.45;;
74415;SDS011;62850;42.428;25.618;2022-11-20T08:40:12;12.27;;;4.10;;
74415;SDS011;62850;42.428;25.618;2022-11-20T08:42:45;11.00;;;4.22;;
74415;SDS011;62850;42.428;25.618;2022-11-20T08:45:14;16.05;;;5.22;;
74415;SDS011;62850;42.428;25.618;2022-11-20T08:47:41;13.10;;;3.72;;
74415;SDS011;62850;42.428;25.618;2022-11-20T08:50:07;12.90;;;4.50;;
74415;SDS011;62850;42.428;25.618;2022-11-20T08:52:34;11.73;;;4.25;;
74415;SDS011;62850;42.428;25.618;2022-11-20T08:55:00;18.08;;;4.65;;
74415;SDS011;62850;42.428;25.618;2022-11-20T08:57:25;13.38;;;3.80;;
74415;SDS011;62850;42.428;25.618;2022-11-20T08:59:51;9.75;;;3.55;;
74415;SDS011;62850;42.428;25.618;2022-11-20T09:02:16;12.50;;;3.60;;
74415;SDS011;62850;42.428;25.618;2022-11-20T09:04:42;14.80;;;3.47;;
74415;SDS011;62850;42.428;25.618;2022-11-20T09:07:07;12.32;;;2.92;;
74415;SDS011;62850;42.428;25.618;2022-11-20T09:09:33;11.77;;;4.50;;
74415;SDS011;62850;42.428;25.618;2022-11-20T09:11:58;16.27;;;6.05;;
74415;SDS011;62850;42.428;25.618;2022-11-20T09:14:24;14.73;;;3.75;;
74415;SDS011;62850;42.428;25.618;2022-11-20T09:16:57;11.68;;;3.65;;
74415;SDS011;62850;42.428;25.618;2022-11-20T09:19:23;14.05;;;4.32;;
74415;SDS011;62850;42.428;25.618;2022-11-20T09:21:49;15.57;;;5.47;;
74415;SDS011;62850;42.428;25.618;2022-11-20T09:24:15;14.57;;;4.13;;
74415;SDS011;62850;42.428;25.618;2022-11-20T09:26:41;11.05;;;3.10;;
74415;SDS011;62850;42.428;25.618;2022-11-20T09:29:06;10.90;;;4.07;;
74415;SDS011;62850;42.428;25.618;2022-11-20T09:31:32;9.35;;;2.95;;
74415;SDS011;62850;42.428;25.618;2022-11-20T09:33:57;9.65;;;2.83;;
74415;SDS011;62850;42.428;25.618;2022-11-20T09:36:23;13.63;;;2.78;;
74415;SDS011;62850;42.428;25.618;2022-11-20T09:38:48;16.85;;;3.80;;
74415;SDS011;62850;42.428;25.618;2022-11-20T09:47:05;13.95;;;4.32;;
74415;SDS011;62850;42.428;25.618;2022-11-20T09:52:49;22.50;;;6.93;;
74415;SDS011;62850;42.428;25.618;2022-11-20T09:55:40;16.38;;;4.60;;
74415;SDS011;62850;42.428;25.618;2022-11-20T09:58:07;12.68;;;4.10;;
74415;SDS011;62850;42.428;25.618;2022-11-20T10:00:50;14.68;;;4.40;;
74415;SDS011;62850;42.428;25.618;2022-11-20T10:03:19;14.98;;;3.92;;
74415;SDS011;62850;42.428;25.618;2022-11-20T10:06:07;20.15;;;7.75;;
74415;SDS011;62850;42.428;25.618;2022-11-20T10:11:33;15.98;;;3.95;;
74415;SDS011;62850;42.428;25.618;2022-11-20T10:14:19;14.95;;;5.82;;
74415;SDS011;62850;42.428;25.618;2022-11-20T10:17:22;16.58;;;3.83;;
74415;SDS011;62850;42.428;25.618;2022-11-20T10:31:44;11.38;;;3.75;;
74415;SDS011;62850;42.428;25.618;2022-11-20T10:34:28;17.40;;;3.90;;
74415;SDS011;62850;42.428;25.618;2022-11-20T10:37:01;15.25;;;3.88;;
74415;SDS011;62850;42.428;25.618;2022-11-20T10:39:35;13.15;;;3.50;;
74415;SDS011;62850;42.428;25.618;2022-11-20T10:42:11;17.85;;;3.63;;
74415;SDS011;62850;42.428;25.618;2022-11-20T10:44:42;14.13;;;3.58;;
74415;SDS011;62850;42.428;25.618;2022-11-20T10:47:30;15.98;;;3.03;;
74415;SDS011;62850;42.428;25.618;2022-11-20T10:49:57;13.32;;;2.55;;
74415;SDS011;62850;42.428;25.618;2022-11-20T10:52:32;17.75;;;3.30;;
74415;SDS011;62850;42.428;25.618;2022-11-20T10:58:34;20.92;;;4.47;;
74415;SDS011;62850;42.428;25.618;2022-11-20T11:01:23;21.48;;;3.85;;
74415;SDS011;62850;42.428;25.618;2022-11-20T11:03:49;14.13;;;4.10;;
74415;SDS011;62850;42.428;25.618;2022-11-20T11:08:58;15.65;;;4.22;;
74415;SDS011;62850;42.428;25.618;2022-11-20T11:11:29;17.60;;;4.40;;
74415;SDS011;62850;42.428;25.618;2022-11-20T11:16:40;18.83;;;3.85;;
74415;SDS011;62850;42.428;25.618;2022-11-20T11:19:23;17.83;;;3.60;;
74415;SDS011;62850;42.428;25.618;2022-11-20T11:21:56;15.60;;;3.58;;
74415;SDS011;62850;42.428;25.618;2022-11-20T11:24:25;23.05;;;3.70;;
74415;SDS011;62850;42.428;25.618;2022-11-20T11:26:53;18.75;;;3.78;;
74415;SDS011;62850;42.428;25.618;2022-11-20T11:29:22;14.40;;;3.28;;
74415;SDS011;62850;42.428;25.618;2022-11-20T11:31:48;17.75;;;4.30;;
74415;SDS011;62850;42.428;25.618;2022-11-20T11:34:15;19.70;;;4.68;;
74415;SDS011;62850;42.428;25.618;2022-11-20T11:36:47;19.83;;;3.38;;
74415;SDS011;62850;42.428;25.618;2022-11-20T11:39:19;18.38;;;3.63;;
74415;SDS011;62850;42.428;25.618;2022-11-20T11:41:46;19.27;;;3.20;;
74415;SDS011;62850;42.428;25.618;2022-11-20T11:44:17;22.27;;;3.75;;
74415;SDS011;62850;42.428;25.618;2022-11-20T11:47:22;17.17;;;4.63;;
74415;SDS011;62850;42.428;25.618;2022-11-20T11:52:36;18.63;;;3.65;;
74415;SDS011;62850;42.428;25.618;2022-11-20T11:55:12;15.38;;;3.15;;
74415;SDS011;62850;42.428;25.618;2022-11-20T11:58:02;14.50;;;3.05;;
74415;SDS011;62850;42.428;25.618;2022-11-20T12:00:34;23.08;;;3.20;;
74415;SDS011;62850;42.428;25.618;2022-11-20T12:03:11;24.42;;;4.15;;
74415;SDS011;62850;42.428;25.618;2022-11-20T12:05:44;24.90;;;3.75;;
74415;SDS011;62850;42.428;25.618;2022-11-20T12:13:34;22.80;;;3.65;;
74415;SDS011;62850;42.428;25.618;2022-11-20T12:16:07;20.35;;;3.78;;
74415;SDS011;62850;42.428;25.618;2022-11-20T12:18:36;16.20;;;2.90;;
74415;SDS011;62850;42.428;25.618;2022-11-20T12:21:20;14.32;;;3.50;;
74415;SDS011;62850;42.428;25.618;2022-11-20T12:43:44;17.35;;;3.67;;
74415;SDS011;62850;42.428;25.618;2022-11-20T12:46:46;11.52;;;3.60;;
74415;SDS011;62850;42.428;25.618;2022-11-20T12:49:24;22.15;;;3.55;;
74415;SDS011;62850;42.428;25.618;2022-11-20T13:06:44;22.17;;;6.40;;
74415;SDS011;62850;42.428;25.618;2022-11-20T13:09:14;26.85;;;7.95;;
74415;SDS011;62850;42.428;25.618;2022-11-20T13:17:11;24.13;;;4.78;;
74415;SDS011;62850;42.428;25.618;2022-11-20T13:19:42;17.85;;;4.88;;
74415;SDS011;62850;42.428;25.618;2022-11-20T13:22:23;23.73;;;5.40;;
74415;SDS011;62850;42.428;25.618;2022-11-20T13:24:53;27.65;;;4.68;;
74415;SDS011;62850;42.428;25.618;2022-11-20T13:27:20;23.65;;;4.43;;
74415;SDS011;62850;42.428;25.618;2022-11-20T13:30:01;21.63;;;4.00;;
74415;SDS011;62850;42.428;25.618;2022-11-20T13:32:47;18.25;;;4.80;;
74415;SDS011;62850;42.428;25.618;2022-11-20T13:35:33;27.48;;;5.40;;
74415;SDS011;62850;42.428;25.618;2022-11-20T13:40:27;18.83;;;4.47;;
74415;SDS011;62850;42.428;25.618;2022-11-20T13:45:33;19.33;;;4.75;;
74415;SDS011;62850;42.428;25.618;2022-11-20T13:48:03;21.10;;;4.32;;
74415;SDS011;62850;42.428;25.618;2022-11-20T13:56:16;24.42;;;5.22;;
74415;SDS011;62850;42.428;25.618;2022-11-20T14:01:51;23.25;;;4.38;;
74415;SDS011;62850;42.428;25.618;2022-11-20T14:04:18;23.17;;;3.97;;
74415;SDS011;62850;42.428;25.618;2022-11-20T14:06:49;25.00;;;4.18;;
74415;SDS011;62850;42.428;25.618;2022-11-20T14:09:25;21.33;;;4.68;;
74415;SDS011;62850;42.428;25.618;2022-11-20T14:11:52;21.25;;;4.68;;
74415;SDS011;62850;42.428;25.618;2022-11-20T14:14:22;21.33;;;4.75;;
74415;SDS011;62850;42.428;25.618;2022-11-20T14:16:49;20.45;;;4.13;;
74415;SDS011;62850;42.428;25.618;2022-11-20T14:19:26;34.33;;;5.22;;
74415;SDS011;62850;42.428;25.618;2022-11-20T14:22:07;20.52;;;4.68;;
74415;SDS011;62850;42.428;25.618;2022-11-20T14:24:45;27.25;;;5.55;;
74415;SDS011;62850;42.428;25.618;2022-11-20T14:27:12;20.65;;;5.35;;
74415;SDS011;62850;42.428;25.618;2022-11-20T14:29:39;34.53;;;6.22;;
74415;SDS011;62850;42.428;25.618;2022-11-20T14:32:08;29.67;;;8.55;;
74415;SDS011;62850;42.428;25.618;2022-11-20T14:34:37;27.17;;;7.88;;
74415;SDS011;62850;42.428;25.618;2022-11-20T14:37:06;29.45;;;6.05;;
74415;SDS011;62850;42.428;25.618;2022-11-20T14:39:39;20.50;;;5.43;;
74415;SDS011;62850;42.428;25.618;2022-11-20T14:42:20;26.20;;;6.45;;
74415;SDS011;62850;42.428;25.618;2022-11-20T14:44:48;25.08;;;7.15;;
74415;SDS011;62850;42.428;25.618;2022-11-20T14:47:17;28.02;;;7.32;;
74415;SDS011;62850;42.428;25.618;2022-11-20T14:49:45;26.13;;;5.63;;
74415;SDS011;62850;42.428;25.618;2022-11-20T14:52:16;20.90;;;5.15;;
74415;SDS011;62850;42.428;25.618;2022-11-20T14:54:45;24.10;;;5.55;;
74415;SDS011;62850;42.428;25.618;2022-11-20T14:57:28;24.05;;;5.13;;
74415;SDS011;62850;42.428;25.618;2022-11-20T15:02:30;18.80;;;4.40;;
74415;SDS011;62850;42.428;25.618;2022-11-20T15:04:57;24.17;;;5.40;;
74415;SDS011;62850;42.428;25.618;2022-11-20T15:07:28;29.05;;;5.35;;
74415;SDS011;62850;42.428;25.618;2022-11-20T15:12:32;29.50;;;5.20;;
74415;SDS011;62850;42.428;25.618;2022-11-20T15:18:13;26.08;;;4.10;;
74415;SDS011;62850;42.428;25.618;2022-11-20T15:20:40;26.95;;;4.90;;
74415;SDS011;62850;42.428;25.618;2022-11-20T15:23:14;23.75;;;4.65;;
74415;SDS011;62850;42.428;25.618;2022-11-20T15:25:41;23.65;;;4.78;;
74415;SDS011;62850;42.428;25.618;2022-11-20T15:28:29;26.23;;;5.05;;
74415;SDS011;62850;42.428;25.618;2022-11-20T15:31:02;29.10;;;4.45;;
74415;SDS011;62850;42.428;25.618;2022-11-20T15:33:29;19.45;;;4.45;;
74415;SDS011;62850;42.428;25.618;2022-11-20T15:35:55;35.90;;;6.70;;
74415;SDS011;62850;42.428;25.618;2022-11-20T15:38:21;23.92;;;4.95;;
74415;SDS011;62850;42.428;25.618;2022-11-20T15:40:46;24.33;;;4.85;;
74415;SDS011;62850;42.428;25.618;2022-11-20T15:43:12;23.13;;;5.30;;
74415;SDS011;62850;42.428;25.618;2022-11-20T15:45:41;26.33;;;4.88;;
74415;SDS011;62850;42.428;25.618;2022-11-20T15:48:11;28.50;;;4.93;;
74415;SDS011;62850;42.428;25.618;2022-11-20T15:53:39;38.03;;;6.13;;
74415;SDS011;62850;42.428;25.618;2022-11-20T15:56:09;20.33;;;4.72;;
74415;SDS011;62850;42.428;25.618;2022-11-20T15:58:36;28.63;;;5.18;;
74415;SDS011;62850;42.428;25.618;2022-11-20T16:01:02;34.35;;;7.03;;
74415;SDS011;62850;42.428;25.618;2022-11-20T16:03:27;30.38;;;5.53;;
74415;SDS011;62850;42.428;25.618;2022-11-20T16:05:53;27.52;;;5.95;;
74415;SDS011;62850;42.428;25.618;2022-11-20T16:08:18;21.17;;;5.85;;
74415;SDS011;62850;42.428;25.618;2022-11-20T16:10:44;32.22;;;7.03;;
74415;SDS011;62850;42.428;25.618;2022-11-20T16:13:13;24.98;;;6.50;;
74415;SDS011;62850;42.428;25.618;2022-11-20T16:16:02;28.15;;;6.68;;
74415;SDS011;62850;42.428;25.618;2022-11-20T16:18:30;30.75;;;10.07;;
74415;SDS011;62850;42.428;25.618;2022-11-20T16:20:55;32.42;;;7.68;;
74415;SDS011;62850;42.428;25.618;2022-11-20T16:23:21;25.00;;;6.68;;
74415;SDS011;62850;42.428;25.618;2022-11-20T16:25:47;32.55;;;7.68;;
74415;SDS011;62850;42.428;25.618;2022-11-20T16:28:13;33.20;;;6.18;;
74415;SDS011;62850;42.428;25.618;2022-11-20T16:30:39;25.70;;;6.05;;
74415;SDS011;62850;42.428;25.618;2022-11-20T16:33:08;23.83;;;5.82;;
74415;SDS011;62850;42.428;25.618;2022-11-20T16:35:35;26.33;;;7.15;;